Date,TemperatureHighF,TemperatureAvgF,TemperatureLowF,DewpointHighF,DewpointAvgF,DewpointLowF,HumidityHigh,HumidityAvg,HumidityLow,PressureMaxIn,PressureMinIn,WindSpeedMaxMPH,WindSpeedAvgMPH,GustSpeedMaxMPH,PrecipitationSumIn
2014-1-1,31.5,24.4,19.8,23.7,19.2,14.4,91,81,71,30.64,30.37,11,5,11,0.00
2014-1-2,122.5,14.8,2.7,99.9,9.2,-99.9,93,80,2,30.73,30.22,54,8,54,0.00
2014-1-3,17.1,7.8,-6.7,2.9,-4.7,-14.3,76,57,32,30.97,30.44,12,3,23,0.00
2014-1-4,38.8,26.4,14.4,18.7,10.0,2.5,61,50,32,30.45,30.21,11,4,22,0.00
2014-1-5,35.8,30.0,9.5,33.2,25.3,5.8,99,85,46,30.29,29.69,4,0,11,0.00
2014-1-6,9.5,-10.0,-15.3,6.0,-24.1,-32.4,85,49,32,30.83,30.02,15,3,25,0.00
2014-1-7,7.2,-5.3,-14.1,-7.5,-22.5,-29.5,50,42,33,30.89,30.69,10,4,19,0.00
2014-1-8,22.1,18.4,13.6,11.1,7.0,-1.3,68,60,46,30.95,30.76,11,4,11,0.00
2014-1-9,31.5,21.2,9.5,31.0,12.6,-1.3,99,70,57,30.98,30.58,14,4,14,0.00
2014-1-10,42.6,36.7,31.5,42.4,36.1,31.2,99,98,90,30.58,29.77,16,7,17,0.39
2014-1-11,43.5,37.8,33.1,43.3,36.9,28.1,99,96,80,29.96,29.52,23,10,24,0.04
2014-1-12,41.7,34.8,29.3,30.9,27.6,24.9,88,75,59,30.30,29.96,21,10,24,0.00
2014-1-13,48.0,42.6,34.3,39.6,32.6,27.2,84,68,56,30.00,29.78,18,8,19,0.00
2014-1-14,41.4,31.6,23.9,32.0,23.1,12.1,90,72,49,30.17,29.87,30,10,31,0.01
2014-1-15,27.7,21.7,17.8,16.4,11.1,6.7,73,63,53,30.42,30.16,24,11,26,0.00
2014-1-16,31.1,23.8,16.3,25.9,16.9,7.5,89,75,57,30.32,29.79,21,9,21,0.00
2014-1-17,29.8,17.4,8.2,26.8,9.8,-2.2,90,72,49,30.32,29.88,23,9,27,0.00
2014-1-18,22.8,17.6,12.4,20.6,11.9,6.1,91,78,61,30.29,29.96,17,6,17,0.00
2014-1-19,32.0,23.3,13.1,20.3,15.8,9.0,91,74,55,30.19,29.85,22,9,24,0.00
2014-1-20,35.8,33.6,29.5,26.8,25.7,24.1,82,72,63,30.15,30.00,11,3,11,0.00
2014-1-21,29.8,10.8,0.7,25.9,-1.4,-11.8,88,59,31,30.57,30.07,27,8,27,0.00
2014-1-22,14.5,6.1,-3.1,10.4,-0.7,-9.5,83,73,56,30.58,30.22,23,5,26,0.00
2014-1-23,5.7,-0.6,-5.3,-1.0,-10.0,-15.1,73,63,54,31.12,30.40,21,10,21,0.00
2014-1-24,21.2,7.1,-6.9,14.6,-6.1,-14.5,85,56,33,31.12,29.89,30,10,30,0.00
2014-1-25,29.3,19.1,5.0,28.5,10.8,-7.2,98,71,44,30.15,29.55,34,16,34,0.00
2014-1-26,40.5,22.9,3.4,28.0,11.7,-7.4,80,62,43,30.13,29.55,48,10,52,0.02
2014-1-27,24.1,2.4,-8.7,14.1,-10.3,-20.0,70,54,33,30.90,29.83,40,17,41,0.00
2014-1-28,9.0,-2.5,-12.1,-9.6,-15.3,-21.7,64,54,38,31.02,30.69,15,4,15,0.00
2014-1-29,23.7,11.2,0.0,1.4,-5.4,-10.7,62,47,32,30.71,30.53,20,7,20,0.00
2014-1-30,32.5,21.9,11.5,17.4,1.6,-3.9,61,41,28,30.53,29.97,27,10,28,0.00
2014-1-31,32.2,29.0,27.1,25.4,17.4,5.0,88,64,31,30.45,30.16,14,4,16,0.00
2014-2-1,40.1,36.0,29.3,39.8,34.8,25.1,99,96,81,30.37,29.99,14,5,14,0.97
2014-2-2,31.1,24.8,17.4,30.9,21.3,11.0,99,87,69,30.64,30.26,0,0,0,0.00
2014-2-3,25.3,14.3,4.1,11.2,6.1,-1.8,81,70,49,30.78,30.58,0,0,0,0.09
2014-2-4,145.9,17.1,5.4,42.7,10.9,-99.9,92,80,4,30.84,30.16,55,4,55,7.48
2014-2-5,27.3,20.3,12.0,18.8,15.4,6.7,93,81,63,30.81,30.01,14,6,14,0.00
2014-2-6,17.2,7.2,-4.5,12.2,-1.3,-13.6,82,68,49,30.92,30.80,22,7,22,0.00
2014-2-7,12.2,1.8,-7.4,-3.9,-9.6,-14.4,71,59,41,30.94,30.79,16,4,16,0.00
2014-2-8,22.1,14.1,2.3,16.0,5.3,-7.3,77,67,57,30.80,30.46,9,3,9,0.00
2014-2-9,22.1,17.4,7.2,20.5,10.8,0.1,94,75,57,30.64,30.39,17,7,17,0.01
2014-2-10,10.9,2.1,-5.3,0.4,-6.9,-13.4,78,66,49,30.89,30.64,11,4,11,0.00
2014-2-11,14.9,0.5,-10.7,-1.5,-9.2,-18.1,73,63,45,31.04,30.86,6,2,8,0.00
2014-2-12,24.3,8.1,-6.9,5.9,-3.0,-14.4,75,61,39,30.86,30.31,8,2,8,0.00
2014-2-13,34.2,20.9,0.7,18.6,4.3,-6.5,76,51,27,30.31,29.68,17,5,18,0.00
2014-2-14,32.5,18.7,12.4,23.0,10.4,4.4,77,70,56,30.07,29.67,26,7,26,0.00
2014-2-15,23.2,16.3,6.4,12.2,6.1,-1.5,75,64,47,30.42,30.06,15,5,15,0.02
2014-2-16,25.0,21.7,12.7,18.5,14.6,7.3,82,74,60,30.66,30.18,15,5,15,0.00
2014-2-17,35.6,24.5,12.9,31.9,17.6,7.4,99,75,57,30.69,29.81,35,9,35,0.01
2014-2-18,45.5,38.0,26.8,28.1,23.8,20.4,77,58,38,30.35,29.87,28,10,35,0.02
2014-2-19,42.8,37.9,31.8,31.8,26.9,24.6,79,65,51,30.35,29.81,21,7,21,0.00
2014-2-20,55.2,43.6,33.4,52.3,38.3,25.4,99,82,62,30.29,29.35,30,10,36,0.32
2014-2-21,40.3,36.3,33.3,29.0,20.8,12.5,73,54,33,30.14,29.67,37,14,37,0.00
2014-2-22,42.8,37.3,31.3,31.5,23.3,16.9,91,58,37,30.32,30.07,19,6,19,0.00
2014-2-23,33.3,27.8,23.2,31.0,18.0,7.8,94,68,40,30.53,30.27,20,6,20,0.01
2014-2-24,28.2,22.4,16.7,12.1,7.5,3.3,65,53,36,30.63,30.50,21,11,22,0.00
2014-2-25,25.3,21.4,14.4,11.9,9.6,0.0,72,60,50,30.56,30.39,23,10,23,0.00
2014-2-26,19.4,11.7,4.5,1.4,-4.1,-8.2,62,49,29,30.58,29.98,23,12,23,0.00
2014-2-27,19.8,13.8,6.6,5.0,-5.5,-13.7,60,42,25,30.51,29.84,37,12,37,0.00
2014-2-28,35.1,19.7,4.8,6.7,-2.3,-11.3,70,42,13,30.60,30.32,18,6,18,0.00
2014-3-1,45.5,32.4,22.1,24.7,14.0,5.0,83,49,29,30.59,30.33,14,6,14,0.00
2014-3-2,22.5,18.5,11.1,18.1,10.6,0.9,86,71,53,30.67,30.52,14,8,14,0.00
2014-3-3,16.7,9.8,2.1,1.1,-7.1,-13.0,66,47,26,30.87,30.65,16,6,16,0.00
2014-3-4,32.4,17.8,6.1,9.9,1.3,-7.3,63,49,25,30.78,30.47,11,3,11,0.00
2014-3-5,28.0,20.0,14.2,16.7,8.6,2.5,79,62,35,30.80,30.54,14,6,14,0.00
2014-3-6,35.6,24.1,15.4,19.0,12.5,5.3,78,61,47,30.78,30.42,13,5,13,0.00
2014-3-7,56.8,37.5,18.1,27.9,21.0,13.8,84,56,21,30.42,30.11,11,3,11,0.00
2014-3-8,42.3,35.1,25.9,32.0,27.8,17.6,83,75,55,30.58,30.19,16,5,16,0.00
2014-3-9,44.1,32.1,19.4,26.4,18.7,13.6,82,59,38,30.69,30.18,17,6,17,0.00
2014-3-10,59.2,46.8,36.9,36.2,31.3,26.4,68,56,36,30.19,29.82,22,8,22,0.00
2014-3-11,66.9,51.0,37.0,45.1,38.1,31.3,85,63,32,29.89,29.66,13,3,13,0.00
2014-3-12,44.1,29.4,17.6,37.0,23.3,8.7,99,79,61,30.35,29.45,25,5,25,0.98
2014-3-13,34.9,25.0,13.1,19.1,9.9,-3.2,74,54,25,30.54,30.26,17,6,17,0.00
2014-3-14,60.4,45.8,33.6,34.6,24.2,15.2,61,44,22,30.27,29.80,34,12,34,0.00
2014-3-15,50.0,40.8,32.9,30.7,25.2,14.3,76,56,25,30.49,30.09,17,7,17,0.00
2014-3-16,33.1,26.3,18.5,23.0,11.1,5.2,66,52,41,30.60,30.38,22,10,22,0.00
2014-3-17,37.9,25.4,14.7,21.8,12.5,5.8,71,58,44,30.36,30.06,17,6,17,0.00
2014-3-18,56.1,40.2,25.3,36.4,26.2,18.8,82,59,33,30.19,29.92,18,6,18,0.00
2014-3-19,52.7,44.9,35.2,42.6,37.2,24.6,89,75,63,30.29,29.83,35,13,35,0.01
2014-3-20,49.8,39.5,30.2,28.7,24.4,19.8,73,55,36,30.41,30.25,24,8,24,0.00
2014-3-21,68.4,50.1,33.8,32.4,22.8,7.9,80,45,10,30.37,29.93,19,6,21,0.00
2014-3-22,57.9,41.6,37.4,34.9,26.6,17.1,71,56,21,30.54,29.94,27,9,27,0.00
2014-3-23,24.8,24.1,23.4,9.6,8.8,8.3,52,52,51,30.79,30.79,2,2,2,0.00
2014-3-24,35.8,27.4,19.4,12.3,6.1,-1.9,63,43,20,30.79,30.46,15,4,15,0.00
2014-3-25,32.2,26.9,21.9,23.6,14.0,4.0,87,59,30,30.60,30.28,31,9,31,0.00
2014-3-26,41.2,27.9,15.4,10.4,2.7,-12.7,75,41,10,30.77,30.54,11,3,11,0.00
2014-3-27,51.3,40.6,33.3,35.1,19.9,3.3,63,44,27,30.52,29.88,19,12,19,0.05
2014-3-28,51.1,43.9,33.3,45.1,36.5,27.5,97,76,56,30.52,29.78,26,11,26,0.11
2014-3-29,38.7,36.8,32.9,33.9,29.1,25.6,98,74,66,30.54,30.34,17,7,17,0.24
2014-3-30,54.7,39.6,27.0,28.7,23.8,13.8,90,59,24,30.66,30.44,12,4,13,0.00
2014-3-31,68.0,52.5,35.8,28.7,18.8,6.4,66,34,10,30.48,30.09,29,8,29,0.00
2014-4-1,60.4,54.0,46.9,39.2,23.7,12.0,58,32,15,30.41,30.08,31,14,31,0.02
2014-4-2,55.0,48.1,41.7,44.3,37.4,26.2,83,67,45,30.50,30.28,13,4,13,0.11
2014-4-3,50.9,45.4,42.3,48.3,44.3,41.1,99,96,77,30.32,29.80,22,7,24,1.68
2014-4-4,57.6,45.0,36.5,57.3,40.9,25.5,99,86,62,30.21,29.55,34,14,36,0.08
2014-4-5,51.1,40.5,32.2,28.2,24.8,20.6,72,55,30,30.57,30.20,24,7,24,0.00
2014-4-6,56.3,43.7,30.4,31.5,27.0,19.3,95,57,25,30.54,30.21,15,4,15,0.00
2014-4-7,47.3,42.5,40.1,44.9,36.3,29.3,99,80,56,30.21,29.51,24,7,26,0.92
2014-4-8,56.5,47.0,36.5,44.3,38.5,33.7,99,74,47,30.10,29.67,17,6,17,0.04
2014-4-9,61.9,51.7,34.7,36.8,29.4,20.3,92,45,21,30.34,30.09,21,6,21,0.00
2014-4-10,73.0,58.8,45.3,47.2,33.1,23.7,73,41,16,30.26,29.95,34,10,34,0.00
2014-4-11,68.7,57.9,49.3,52.5,36.6,8.2,99,57,10,30.39,30.14,17,4,17,0.12
2014-4-12,80.1,63.0,44.6,48.6,37.3,28.0,62,41,15,30.47,29.95,24,7,24,0.00
2014-4-13,77.2,69.8,63.3,52.1,48.6,44.3,62,48,32,30.01,29.71,31,9,31,0.00
2014-4-14,70.3,51.3,30.2,59.5,45.3,30.0,99,83,41,30.11,29.55,28,10,28,0.07
2014-4-15,37.0,31.7,27.9,30.3,16.2,2.4,99,56,24,30.60,30.08,21,6,21,0.06
2014-4-16,50.5,37.9,25.7,20.5,11.9,4.4,59,37,15,30.81,30.59,20,8,20,0.00
2014-4-17,68.4,51.6,36.0,29.6,17.2,4.8,52,31,10,30.66,30.57,21,7,21,0.00
2014-4-18,69.1,56.4,42.4,37.5,29.4,19.6,69,40,16,30.68,30.54,17,4,19,0.00
2014-4-19,65.5,51.6,39.0,43.3,31.8,21.3,99,53,19,30.85,30.63,18,7,18,0.00
2014-4-21,78.3,68.5,53.4,58.8,39.4,24.2,97,41,14,30.37,30.05,21,7,21,0.01
2014-4-22,59.4,53.4,42.1,58.9,37.3,19.0,99,60,25,30.28,29.96,23,9,23,0.04
2014-4-23,61.7,47.1,33.6,28.8,21.5,3.9,72,42,10,30.46,30.27,11,4,11,0.00
2014-4-24,64.0,55.9,48.4,31.4,14.6,1.2,51,23,10,30.46,29.89,21,10,21,0.00
2014-4-25,67.8,57.3,49.1,53.2,34.3,6.1,99,52,12,30.13,29.73,28,7,28,0.45
2014-4-26,73.4,61.1,52.3,43.7,33.5,22.1,64,39,16,30.25,30.07,14,5,14,0.00
2014-4-27,70.2,55.3,41.7,35.6,32.3,25.7,70,44,22,30.43,30.09,25,11,25,0.00
2014-4-28,63.5,53.4,46.2,60.2,48.5,33.7,99,85,51,30.17,29.65,28,9,28,0.73
2014-4-29,76.8,62.0,52.2,61.1,47.2,16.7,99,68,11,29.93,29.59,38,8,38,0.40
2014-4-30,62.8,54.0,44.6,54.2,46.4,34.9,99,78,46,30.12,29.87,25,8,25,0.00
2014-5-1,53.2,47.6,42.4,37.9,35.1,31.4,79,63,44,30.11,30.01,27,10,27,0.00
2014-5-2,53.1,50.5,46.2,42.7,38.8,35.8,87,65,53,30.11,30.03,21,9,21,0.00
2014-5-3,49.6,49.2,48.4,41.2,40.6,40.3,76,72,70,30.06,29.98,11,5,11,0.00
2014-5-9,72.0,65.9,63.7,57.3,47.8,42.8,62,52,41,30.12,30.00,31,6,31,0.06
2014-5-10,76.8,66.1,54.3,56.2,37.4,11.9,93,44,10,30.30,30.11,17,4,17,0.00
2014-5-11,86.7,68.7,54.0,66.8,53.4,35.6,99,62,29,30.38,30.14,18,5,18,0.26
2014-5-12,85.1,72.3,61.2,71.0,64.8,60.9,99,80,50,30.34,30.21,29,6,29,0.60
2014-5-13,82.4,69.5,55.9,72.4,66.3,55.7,99,91,53,30.47,30.20,20,7,20,0.54
2014-5-14,56.5,54.1,49.1,56.2,53.7,48.8,99,99,92,30.47,30.02,17,6,17,1.09
2014-5-15,52.3,48.0,41.9,51.7,44.4,34.8,99,88,59,30.37,29.93,24,8,24,0.04
2014-5-16,52.2,44.4,38.8,44.2,40.5,35.7,99,87,61,30.36,30.23,15,3,15,0.14
2014-5-17,56.5,47.5,39.4,43.8,34.8,21.1,99,67,27,30.61,30.33,14,4,14,0.00
2014-5-18,66.6,53.3,38.1,45.8,30.0,7.8,99,52,11,30.69,30.54,9,2,9,0.00
2014-5-19,54.9,46.7,43.3,42.2,38.3,36.3,83,73,52,30.69,30.56,5,0,5,0.00
2014-5-20,82.9,72.1,60.8,59.5,53.6,41.5,62,53,39,30.37,30.17,15,6,15,0.00
2014-5-21,84.9,73.4,66.7,68.3,62.2,56.2,99,69,41,30.23,30.09,20,6,20,0.00
2014-5-22,76.8,68.3,59.0,68.3,51.2,33.4,99,61,21,30.43,30.13,15,4,16,0.00
2014-5-23,75.9,63.5,49.6,48.8,41.1,31.0,89,49,20,30.53,30.40,12,3,12,0.00
2014-5-24,80.6,65.6,48.2,49.4,40.4,25.2,94,47,14,30.59,30.42,9,2,9,0.00
2014-5-25,85.5,70.8,54.5,56.4,42.6,23.5,94,44,11,30.54,30.37,9,2,9,0.00
2014-5-26,88.2,74.5,58.6,59.3,54.0,45.1,86,52,30,30.47,30.25,15,3,15,0.00
2014-5-27,87.3,77.9,68.5,67.6,58.3,43.4,95,55,22,30.32,30.11,21,6,21,0.00
2014-5-28,88.2,73.2,66.4,69.7,62.4,51.9,99,72,31,30.32,30.16,13,3,13,0.30
2014-5-29,83.5,71.8,63.7,69.3,64.0,57.8,99,80,47,30.44,30.27,11,4,11,0.01
2014-5-30,84.6,72.0,58.5,57.9,47.5,33.3,78,47,17,30.54,30.38,14,5,14,0.00
2014-5-31,87.8,75.7,59.5,54.3,43.1,25.7,76,37,11,30.56,30.41,14,4,14,0.00
2014-6-1,91.8,77.3,62.1,65.3,48.9,25.6,78,41,10,30.46,30.27,14,4,14,0.00
2014-6-2,80.6,73.0,68.2,71.7,67.1,62.8,99,83,55,30.34,30.14,27,7,27,1.51
2014-6-3,86.4,76.5,67.5,73.9,58.0,22.8,99,63,10,30.20,30.14,21,7,21,0.00
2014-6-4,77.0,65.0,59.7,72.8,59.4,49.4,99,84,50,30.19,29.84,24,5,24,0.56
2014-6-5,78.3,65.0,54.3,63.4,52.7,37.9,99,71,26,30.24,30.05,10,3,10,0.00
2014-6-6,63.0,56.5,53.1,60.5,53.1,50.9,99,89,70,30.28,30.17,4,0,4,0.00